AAL2725 TBPB-KMIA
Flight info
| Callsign | AAL2725 |
|---|---|
| Flight time | N/A |
| Altitude | 36000 |
| Route | GEECE L466 MEEGL Y421 HAGIT Y308 MADIZ VIICE2 |
| Aircraft | B38M/M-SDE1FGHILORVWXY/HB1 |
Departure
| Time | 2026-04-27 11:57 |
|---|---|
| Airport | Grantley Adams International Airport (TBPB) |
Arrival
| Time | N/A |
|---|---|
| Airport | Miami International Airport (KMIA) |
| Time | Latitude | Longitude | Altitude | Speed | Heading |
|---|---|---|---|---|---|
| 2026-04-27 11:32 | 13.07875 | -59.48752 | 180 ft | 0 kts | 346° |
| 2026-04-27 11:47 | 13.07864 | -59.48749 | 180 ft | 4 kts | 345° |
| 2026-04-27 11:47 | 13.07846 | -59.48744 | 180 ft | 4 kts | 342° |
| 2026-04-27 11:47 | 13.07821 | -59.48735 | 180 ft | 4 kts | 336° |
| 2026-04-27 11:48 | 13.07798 | -59.48721 | 180 ft | 4 kts | 320° |
| 2026-04-27 11:48 | 13.07784 | -59.48702 | 180 ft | 4 kts | 269° |
| 2026-04-27 11:48 | 13.07785 | -59.48696 | 180 ft | 2 kts | 256° |
| 2026-04-27 11:49 | 13.07784 | -59.48698 | 180 ft | 1 kts | 256° |
| 2026-04-27 11:49 | 13.07784 | -59.48699 | 180 ft | 0 kts | 256° |
| 2026-04-27 11:50 | 13.07781 | -59.48710 | 180 ft | 3 kts | 256° |
| 2026-04-27 11:51 | 13.07774 | -59.48732 | 180 ft | 7 kts | 244° |
| 2026-04-27 11:51 | 13.07733 | -59.48785 | 179 ft | 11 kts | 242° |
| 2026-04-27 11:51 | 13.07690 | -59.48963 | 180 ft | 14 kts | 255° |
| 2026-04-27 11:52 | 13.07664 | -59.49067 | 180 ft | 16 kts | 256° |
| 2026-04-27 11:52 | 13.07636 | -59.49181 | 180 ft | 17 kts | 255° |
| 2026-04-27 11:52 | 13.07606 | -59.49303 | 180 ft | 18 kts | 256° |
| 2026-04-27 11:52 | 13.07574 | -59.49435 | 180 ft | 20 kts | 256° |
| 2026-04-27 11:53 | 13.07539 | -59.49578 | 180 ft | 21 kts | 256° |
| 2026-04-27 11:53 | 13.07503 | -59.49728 | 180 ft | 22 kts | 256° |
| 2026-04-27 11:53 | 13.07464 | -59.49889 | 180 ft | 24 kts | 256° |
| 2026-04-27 11:53 | 13.07424 | -59.50058 | 180 ft | 25 kts | 256° |
| 2026-04-27 11:54 | 13.07392 | -59.50189 | 180 ft | 15 kts | 256° |
| 2026-04-27 11:54 | 13.07365 | -59.50298 | 180 ft | 16 kts | 255° |
| 2026-04-27 11:54 | 13.07336 | -59.50416 | 181 ft | 18 kts | 256° |
| 2026-04-27 11:54 | 13.07304 | -59.50541 | 180 ft | 19 kts | 256° |
| 2026-04-27 11:55 | 13.07274 | -59.50662 | 180 ft | 13 kts | 255° |
| 2026-04-27 11:55 | 13.07252 | -59.50722 | 180 ft | 8 kts | 220° |
| 2026-04-27 11:55 | 13.07196 | -59.50722 | 180 ft | 9 kts | 171° |
| 2026-04-27 11:55 | 13.07131 | -59.50705 | 180 ft | 10 kts | 162° |
| 2026-04-27 11:56 | 13.07106 | -59.50670 | 180 ft | 0 kts | 78° |
| 2026-04-27 11:56 | 13.07112 | -59.50648 | 180 ft | 9 kts | 75° |
| 2026-04-27 11:56 | 13.07181 | -59.50367 | 182 ft | 74 kts | 76° |
| 2026-04-27 11:56 | 13.07357 | -59.49642 | 178 ft | 134 kts | 76° |
| 2026-04-27 11:57 | 13.07627 | -59.48551 | 277 ft | 175 kts | 78° |
| 2026-04-27 11:57 | 13.07926 | -59.47345 | 1042 ft | 171 kts | 75° |
| 2026-04-27 11:57 | 13.08271 | -59.46116 | 1740 ft | 190 kts | 75° |
| 2026-04-27 11:57 | 13.08671 | -59.44743 | 2289 ft | 212 kts | 75° |
| 2026-04-27 11:58 | 13.09124 | -59.43225 | 2909 ft | 226 kts | 75° |
| 2026-04-27 11:58 | 13.09596 | -59.41702 | 3971 ft | 227 kts | 68° |
| 2026-04-27 11:58 | 13.10560 | -59.40378 | 4767 ft | 239 kts | 40° |
| 2026-04-27 11:58 | 13.12144 | -59.39714 | 5463 ft | 261 kts | 8° |
| 2026-04-27 11:59 | 13.14003 | -59.40026 | 6060 ft | 285 kts | 335° |
| 2026-04-27 11:59 | 13.15457 | -59.41381 | 7006 ft | 288 kts | 302° |
| 2026-04-27 11:59 | 13.16185 | -59.43337 | 7719 ft | 300 kts | 288° |
| 2026-04-27 11:59 | 13.16891 | -59.45354 | 8615 ft | 300 kts | 292° |
| 2026-04-27 12:00 | 13.17638 | -59.47380 | 9369 ft | 307 kts | 294° |
| 2026-04-27 12:00 | 13.18410 | -59.49423 | 10257 ft | 308 kts | 293° |
| 2026-04-27 12:00 | 13.19196 | -59.51490 | 10725 ft | 324 kts | 293° |
| 2026-04-27 12:00 | 13.20064 | -59.53720 | 11137 ft | 339 kts | 293° |
| 2026-04-27 12:01 | 13.20934 | -59.55962 | 11783 ft | 344 kts | 292° |
| 2026-04-27 12:01 | 13.21806 | -59.58264 | 12528 ft | 347 kts | 292° |
| 2026-04-27 12:01 | 13.22684 | -59.60592 | 13220 ft | 351 kts | 291° |
| 2026-04-27 12:01 | 13.23565 | -59.62949 | 13885 ft | 356 kts | 291° |
| 2026-04-27 12:02 | 13.24460 | -59.65338 | 14454 ft | 360 kts | 291° |
| 2026-04-27 12:02 | 13.25359 | -59.67730 | 15106 ft | 361 kts | 291° |
| 2026-04-27 12:02 | 13.26258 | -59.70155 | 15649 ft | 366 kts | 291° |
| 2026-04-27 12:02 | 13.27174 | -59.72594 | 16280 ft | 367 kts | 291° |
| 2026-04-27 12:03 | 13.28090 | -59.75045 | 16878 ft | 369 kts | 291° |
| 2026-04-27 12:03 | 13.29009 | -59.77517 | 17475 ft | 371 kts | 290° |
| 2026-04-27 12:03 | 13.29922 | -59.79965 | 18028 ft | 373 kts | 290° |
| 2026-04-27 12:03 | 13.30865 | -59.82493 | 18551 ft | 376 kts | 290° |
| 2026-04-27 12:04 | 13.31798 | -59.85007 | 19004 ft | 378 kts | 290° |
| 2026-04-27 12:04 | 13.32741 | -59.87540 | 19441 ft | 381 kts | 290° |
| 2026-04-27 12:04 | 13.33687 | -59.90090 | 19868 ft | 384 kts | 289° |
| 2026-04-27 12:04 | 13.34630 | -59.92625 | 20261 ft | 388 kts | 288° |
| 2026-04-27 12:05 | 13.35596 | -59.95218 | 20704 ft | 390 kts | 289° |
| 2026-04-27 12:05 | 13.36564 | -59.97830 | 21140 ft | 392 kts | 289° |
| 2026-04-27 12:05 | 13.37541 | -60.00463 | 21541 ft | 396 kts | 289° |
| 2026-04-27 12:05 | 13.38527 | -60.03118 | 21948 ft | 398 kts | 288° |
| 2026-04-27 12:06 | 13.39517 | -60.05779 | 22363 ft | 400 kts | 288° |
| 2026-04-27 12:06 | 13.40499 | -60.08433 | 22774 ft | 403 kts | 288° |
| 2026-04-27 12:06 | 13.41498 | -60.11127 | 23168 ft | 405 kts | 289° |
| 2026-04-27 12:06 | 13.42502 | -60.13841 | 23576 ft | 407 kts | 289° |
| 2026-04-27 12:07 | 13.43509 | -60.16558 | 23898 ft | 410 kts | 288° |
| 2026-04-27 12:07 | 13.44528 | -60.19308 | 24217 ft | 412 kts | 288° |
| 2026-04-27 12:07 | 13.45546 | -60.22062 | 24558 ft | 414 kts | 288° |
| 2026-04-27 12:07 | 13.46570 | -60.24833 | 24868 ft | 416 kts | 288° |
| 2026-04-27 12:08 | 13.47597 | -60.27615 | 25190 ft | 418 kts | 288° |
| 2026-04-27 12:08 | 13.48630 | -60.30413 | 25509 ft | 420 kts | 288° |
| 2026-04-27 12:08 | 13.49668 | -60.33223 | 25817 ft | 422 kts | 288° |
| 2026-04-27 12:08 | 13.50711 | -60.36049 | 26130 ft | 424 kts | 288° |
| 2026-04-27 12:09 | 13.51758 | -60.38887 | 26445 ft | 426 kts | 288° |
| 2026-04-27 12:09 | 13.52809 | -60.41740 | 26753 ft | 428 kts | 288° |
| 2026-04-27 12:09 | 13.53865 | -60.44607 | 27047 ft | 430 kts | 288° |
| 2026-04-27 12:09 | 13.54930 | -60.47500 | 27340 ft | 432 kts | 288° |
| 2026-04-27 12:10 | 13.55995 | -60.50393 | 27640 ft | 434 kts | 288° |
| 2026-04-27 12:10 | 13.57063 | -60.53296 | 27925 ft | 436 kts | 288° |
| 2026-04-27 12:10 | 13.58137 | -60.56215 | 28204 ft | 438 kts | 288° |
| 2026-04-27 12:10 | 13.59216 | -60.59150 | 28489 ft | 440 kts | 288° |
| 2026-04-27 12:11 | 13.60298 | -60.62097 | 28746 ft | 442 kts | 288° |
| 2026-04-27 12:11 | 13.61368 | -60.65012 | 29014 ft | 444 kts | 288° |
| 2026-04-27 12:11 | 13.62460 | -60.67988 | 29280 ft | 445 kts | 288° |
| 2026-04-27 12:11 | 13.63554 | -60.70970 | 29539 ft | 447 kts | 288° |
| 2026-04-27 12:12 | 13.64654 | -60.73969 | 29787 ft | 449 kts | 288° |
| 2026-04-27 12:12 | 13.65758 | -60.76983 | 30049 ft | 451 kts | 288° |
| 2026-04-27 12:12 | 13.66866 | -60.80007 | 30301 ft | 452 kts | 288° |
| 2026-04-27 12:12 | 13.67975 | -60.83035 | 30511 ft | 453 kts | 288° |
| 2026-04-27 12:13 | 13.69089 | -60.86081 | 30731 ft | 455 kts | 288° |
| 2026-04-27 12:13 | 13.70199 | -60.89115 | 30957 ft | 456 kts | 288° |
| 2026-04-27 12:13 | 13.71317 | -60.92174 | 31176 ft | 457 kts | 288° |
| 2026-04-27 12:13 | 13.72435 | -60.95236 | 31380 ft | 458 kts | 288° |
| 2026-04-27 12:14 | 13.73650 | -60.98252 | 31582 ft | 462 kts | 296° |